Time;durP1;ratioP1;P1;durP2;ratioP2;P2;SDS_P1;SDS_P2;PMS_P1;PMS_P2;Temp;Humidity;BMP_temperature;BMP_pressure;BME280_temperature;BME280_humidity;BME280_pressure;Samples;Min_cycle;Max_cycle;Signal;HPM_P1;HPM_P2
2022/04/25 00:00:25;;;;;;;0.60;0.60;;;8.20;99.90;;;;;;5199021;28;20626;-73
2022/04/25 00:02:58;;;;;;;0.75;0.65;;;8.10;99.90;;;;;;5208985;28;20048;-73
2022/04/25 00:05:30;;;;;;;0.60;0.60;;;8.20;99.90;;;;;;5208195;28;20049;-73
2022/04/25 00:08:03;;;;;;;0.60;0.60;;;8.20;99.90;;;;;;5208516;28;20559;-74
2022/04/25 00:10:35;;;;;;;0.75;0.65;;;8.20;99.90;;;;;;5211269;28;20049;-73
2022/04/25 00:13:08;;;;;;;0.50;0.50;;;8.20;99.90;;;;;;5209791;28;20045;-73
2022/04/25 00:15:41;;;;;;;1.02;0.73;;;8.20;99.90;;;;;;5209993;28;20049;-73
2022/04/25 00:18:13;;;;;;;0.88;0.50;;;8.10;99.90;;;;;;5209251;28;20041;-74
2022/04/25 00:20:46;;;;;;;0.50;0.50;;;8.20;99.90;;;;;;5210796;28;20049;-74
2022/04/25 00:23:18;;;;;;;0.90;0.50;;;8.10;99.90;;;;;;5211037;28;20056;-74
2022/04/25 00:25:51;;;;;;;1.00;0.50;;;8.10;99.90;;;;;;5204787;28;20059;-74
2022/04/25 00:28:24;;;;;;;1.50;0.90;;;8.10;99.90;;;;;;5228185;28;20047;-72
2022/04/25 00:30:56;;;;;;;0.40;0.40;;;8.10;99.90;;;;;;5211533;28;20416;-74
2022/04/25 00:33:29;;;;;;;0.50;0.50;;;8.10;99.90;;;;;;5215206;28;20294;-74
2022/04/25 00:36:01;;;;;;;1.67;0.47;;;8.10;99.90;;;;;;5213791;28;20060;-74
2022/04/25 00:38:33;;;;;;;1.00;0.50;;;8.20;99.90;;;;;;5213904;28;20918;-73
2022/04/25 00:41:06;;;;;;;0.40;0.40;;;8.20;99.90;;;;;;5191150;28;21866;-74
2022/04/25 00:43:39;;;;;;;0.57;0.52;;;8.10;99.90;;;;;;5192599;28;20045;-74
2022/04/25 00:46:22;;;;;;;1.50;0.65;;;8.20;99.90;;;;;;5195279;28;20049;-74
2022/04/25 00:48:54;;;;;;;0.60;0.60;;;8.20;99.90;;;;;;5212349;28;20049;-74
2022/04/25 00:51:26;;;;;;;0.93;0.60;;;8.20;99.90;;;;;;5213515;28;20041;-74
2022/04/25 00:53:59;;;;;;;0.40;0.40;;;8.10;99.90;;;;;;5213000;28;20052;-74
2022/04/25 00:56:32;;;;;;;0.60;0.40;;;8.20;99.90;;;;;;5197619;28;20914;-73
2022/04/25 00:59:05;;;;;;;0.40;0.40;;;8.20;99.90;;;;;;5210494;28;20045;-74
2022/04/25 01:01:38;;;;;;;0.50;0.50;;;8.20;99.90;;;;;;5209202;28;20303;-74
2022/04/25 01:04:10;;;;;;;1.13;0.60;;;8.20;99.90;;;;;;5210957;28;20048;-74
2022/04/25 01:06:43;;;;;;;0.40;0.40;;;8.20;99.90;;;;;;5203615;28;20465;-74
2022/04/25 01:09:15;;;;;;;0.50;0.32;;;8.10;99.90;;;;;;5205271;28;20518;-74
2022/04/25 01:11:48;;;;;;;0.50;0.50;;;8.10;99.90;;;;;;5215834;28;20053;-74
2022/04/25 01:14:21;;;;;;;0.50;0.50;;;8.20;99.90;;;;;;5208803;28;20045;-73
2022/04/25 01:16:54;;;;;;;0.80;0.80;;;8.20;99.90;;;;;;5206000;28;20053;-73
2022/04/25 01:19:26;;;;;;;0.75;0.70;;;8.10;99.90;;;;;;5207125;28;20049;-74
2022/04/25 01:22:02;;;;;;;0.57;0.50;;;8.10;99.90;;;;;;5212116;28;20080;-73
2022/04/25 01:27:27;;;;;;;0.68;0.57;;;8.20;99.90;;;;;;5207592;28;20045;-73
2022/04/25 01:29:59;;;;;;;0.88;0.50;;;8.10;99.90;;;;;;5205252;28;20526;-73
2022/04/25 01:32:31;;;;;;;2.05;0.50;;;8.10;99.90;;;;;;5211555;28;20052;-73
2022/04/25 01:35:05;;;;;;;0.50;0.50;;;8.10;99.90;;;;;;5212242;28;20045;-74
2022/04/25 01:37:37;;;;;;;0.38;0.38;;;8.10;99.90;;;;;;5208257;28;21070;-75
2022/04/25 01:40:10;;;;;;;0.60;0.50;;;8.10;99.90;;;;;;5210681;28;20041;-74
2022/04/25 01:42:43;;;;;;;0.50;0.50;;;8.10;99.90;;;;;;5192406;28;20049;-74
2022/04/25 01:45:16;;;;;;;1.05;0.60;;;8.10;99.90;;;;;;5190721;28;20045;-74
2022/04/25 01:47:48;;;;;;;0.40;0.40;;;8.00;99.90;;;;;;5191247;28;20064;-72
2022/04/25 01:50:20;;;;;;;0.38;0.38;;;8.10;99.90;;;;;;5204171;28;21304;-73
2022/04/25 01:52:53;;;;;;;0.38;0.38;;;8.10;99.90;;;;;;5201764;28;20095;-72
2022/04/25 01:55:25;;;;;;;0.40;0.40;;;8.10;99.90;;;;;;5172843;28;20049;-72
2022/04/25 01:57:58;;;;;;;1.02;0.40;;;8.10;99.90;;;;;;5190893;28;20252;-73
2022/04/25 02:00:30;;;;;;;1.45;1.15;;;8.10;99.90;;;;;;5194363;28;20941;-73
2022/04/25 02:03:03;;;;;;;1.03;0.40;;;8.10;99.90;;;;;;5186520;28;20041;-71
2022/04/25 02:05:35;;;;;;;0.30;0.30;;;8.10;99.90;;;;;;5188692;28;20052;-73
2022/04/25 02:08:08;;;;;;;0.40;0.40;;;8.10;99.90;;;;;;5186544;28;20048;-72
2022/04/25 02:10:40;;;;;;;0.52;0.50;;;8.10;99.90;;;;;;5182327;28;20068;-73
2022/04/25 02:13:13;;;;;;;0.40;0.40;;;8.10;99.90;;;;;;5184665;28;20158;-72
2022/04/25 02:15:47;;;;;;;0.60;0.60;;;8.10;99.90;;;;;;5184081;28;20159;-74
2022/04/25 02:18:19;;;;;;;0.40;0.40;;;8.10;99.90;;;;;;5181391;28;20079;-72
2022/04/25 02:20:52;;;;;;;0.45;0.45;;;8.10;99.90;;;;;;5149893;28;20041;-72
2022/04/25 02:23:25;;;;;;;0.82;0.40;;;8.10;99.90;;;;;;5187634;28;20144;-73
2022/04/25 02:25:57;;;;;;;0.57;0.57;;;8.10;99.90;;;;;;5183323;28;20056;-73
2022/04/25 02:28:30;;;;;;;2.05;0.40;;;8.20;99.90;;;;;;5189613;28;20075;-72
2022/04/25 02:31:04;;;;;;;1.63;0.93;;;8.20;99.90;;;;;;5187712;28;20051;-72
2022/04/25 02:33:36;;;;;;;0.85;0.55;;;8.10;99.90;;;;;;5197046;28;20071;-72
2022/04/25 02:36:09;;;;;;;0.40;0.40;;;8.20;99.90;;;;;;5187206;28;20060;-71
2022/04/25 02:38:41;;;;;;;0.60;0.60;;;8.20;99.90;;;;;;5199913;28;20653;-73
2022/04/25 02:41:15;;;;;;;0.88;0.80;;;8.20;99.90;;;;;;5213351;28;20029;-71
2022/04/25 02:43:47;;;;;;;0.63;0.63;;;8.20;99.90;;;;;;5206948;28;20040;-73
2022/04/25 02:46:20;;;;;;;0.45;0.45;;;8.20;99.90;;;;;;5210252;28;20127;-74
2022/04/25 02:48:52;;;;;;;0.60;0.50;;;8.20;99.90;;;;;;5201784;28;20056;-73
2022/04/25 02:51:25;;;;;;;0.30;0.30;;;8.20;99.90;;;;;;5178305;28;20041;-75
2022/04/25 02:53:57;;;;;;;0.50;0.50;;;8.20;99.90;;;;;;5189421;28;20044;-73
2022/04/25 02:56:30;;;;;;;0.70;0.60;;;8.20;99.90;;;;;;5204126;28;20049;-75
2022/04/25 02:59:02;;;;;;;0.50;0.50;;;8.20;99.90;;;;;;5213571;28;20045;-74
2022/04/25 03:01:34;;;;;;;0.40;0.40;;;8.20;99.90;;;;;;5209676;28;20049;-74
2022/04/25 03:04:08;;;;;;;0.60;0.60;;;8.30;99.90;;;;;;5207406;28;20053;-74
2022/04/25 03:06:40;;;;;;;0.60;0.60;;;8.30;99.90;;;;;;5204490;28;20041;-74
2022/04/25 03:09:13;;;;;;;0.85;0.60;;;8.30;99.90;;;;;;5202596;28;20041;-74
2022/04/25 03:11:46;;;;;;;0.32;0.30;;;8.20;99.90;;;;;;5205715;28;20041;-72
2022/04/25 03:14:18;;;;;;;0.93;0.70;;;8.20;99.90;;;;;;5209283;28;20041;-73
2022/04/25 03:16:51;;;;;;;0.45;0.45;;;8.20;99.90;;;;;;5211419;28;20103;-73
2022/04/25 03:19:23;;;;;;;0.70;0.70;;;8.30;99.90;;;;;;5207267;28;21321;-73
2022/04/25 03:21:55;;;;;;;1.55;0.70;;;8.30;99.90;;;;;;5203412;28;20064;-73
2022/04/25 03:24:29;;;;;;;0.50;0.50;;;8.20;99.90;;;;;;5210826;28;20048;-73
2022/04/25 03:27:02;;;;;;;0.57;0.50;;;8.30;99.90;;;;;;5210119;28;20075;-73
2022/04/25 03:29:35;;;;;;;0.40;0.40;;;8.30;99.90;;;;;;5206915;28;20060;-73
2022/04/25 03:32:08;;;;;;;0.47;0.47;;;8.30;99.90;;;;;;5207043;28;20068;-72
2022/04/25 03:34:41;;;;;;;0.82;0.50;;;8.30;99.90;;;;;;5210175;28;20053;-73
2022/04/25 03:37:14;;;;;;;0.60;0.60;;;8.30;99.90;;;;;;5196303;28;20045;-73
2022/04/25 03:39:46;;;;;;;0.77;0.63;;;8.30;99.90;;;;;;5210353;28;20051;-73
2022/04/25 03:42:23;;;;;;;0.60;0.60;;;8.30;99.90;;;;;;5209259;28;20056;-74
2022/04/25 03:44:56;;;;;;;0.50;0.50;;;8.30;99.90;;;;;;5206074;28;22941;-73
2022/04/25 03:47:28;;;;;;;0.68;0.68;;;8.30;99.90;;;;;;5182935;28;20449;-73
2022/04/25 03:50:01;;;;;;;0.90;0.70;;;8.40;99.90;;;;;;5202860;28;20052;-72
2022/04/25 03:52:38;;;;;;;2.37;1.70;;;8.40;99.90;;;;;;5202303;28;20611;-73
2022/04/25 03:58:06;;;;;;;0.50;0.50;;;8.40;99.90;;;;;;5183138;28;20163;-72
2022/04/25 04:00:38;;;;;;;0.60;0.60;;;8.40;99.90;;;;;;5185768;28;20044;-73
2022/04/25 04:03:14;;;;;;;0.57;0.57;;;8.40;99.90;;;;;;5185118;28;20120;-73
2022/04/25 04:05:47;;;;;;;1.90;0.70;;;8.40;99.90;;;;;;5187076;28;20041;-72
2022/04/25 04:08:20;;;;;;;0.63;0.63;;;8.40;99.90;;;;;;5173885;28;20048;-72
2022/04/25 04:10:52;;;;;;;0.60;0.60;;;8.40;99.90;;;;;;5184155;28;20055;-72
2022/04/25 04:13:25;;;;;;;0.95;0.55;;;8.40;99.90;;;;;;5185869;28;20045;-72
2022/04/25 04:15:57;;;;;;;0.57;0.57;;;8.40;99.90;;;;;;5175836;28;20064;-72
2022/04/25 04:18:31;;;;;;;0.63;0.50;;;8.40;99.90;;;;;;5189928;28;20056;-72
2022/04/25 04:21:03;;;;;;;2.20;0.60;;;8.50;99.90;;;;;;5186706;28;20057;-72
2022/04/25 04:23:38;;;;;;;0.60;0.60;;;8.50;99.90;;;;;;5181527;28;20044;-72
2022/04/25 04:26:11;;;;;;;0.70;0.47;;;8.50;99.90;;;;;;5186353;28;20422;-72
2022/04/25 04:28:43;;;;;;;0.60;0.57;;;8.50;99.90;;;;;;5181215;28;20060;-73
2022/04/25 04:31:16;;;;;;;0.95;0.40;;;8.50;99.90;;;;;;5186035;28;20054;-72
2022/04/25 04:33:48;;;;;;;0.82;0.50;;;8.50;99.90;;;;;;5187680;28;20052;-72
2022/04/25 04:36:22;;;;;;;1.50;1.10;;;8.50;99.90;;;;;;5182731;28;20053;-72
2022/04/25 04:38:55;;;;;;;0.82;0.80;;;8.50;99.90;;;;;;5182858;28;20045;-72
2022/04/25 04:41:27;;;;;;;1.05;0.88;;;8.50;99.90;;;;;;5184360;28;20041;-72
2022/04/25 04:43:59;;;;;;;1.05;0.98;;;8.50;99.90;;;;;;5185462;28;20052;-73
2022/04/25 04:46:32;;;;;;;1.60;0.90;;;8.60;99.90;;;;;;5199350;28;20041;-72
2022/04/25 04:49:05;;;;;;;1.20;1.10;;;8.50;99.90;;;;;;5188464;28;20409;-72
2022/04/25 04:51:37;;;;;;;4.28;1.35;;;8.60;99.90;;;;;;5187411;28;20057;-73
2022/04/25 04:54:10;;;;;;;1.65;1.13;;;8.60;99.90;;;;;;5187212;28;20452;-73
2022/04/25 04:56:42;;;;;;;1.77;1.25;;;8.60;99.90;;;;;;5185769;28;20556;-73
2022/04/25 04:59:15;;;;;;;1.98;1.42;;;8.60;99.90;;;;;;5186395;28;20060;-73
2022/04/25 05:01:47;;;;;;;4.05;1.40;;;8.60;99.90;;;;;;5178664;28;20052;-75
2022/04/25 05:04:20;;;;;;;3.40;1.63;;;8.60;99.90;;;;;;5181573;28;20525;-74
2022/04/25 05:06:52;;;;;;;2.83;1.58;;;8.60;99.90;;;;;;5191918;28;20048;-75
2022/04/25 05:09:24;;;;;;;2.58;1.63;;;8.70;99.90;;;;;;5186276;28;20073;-75
2022/04/25 05:11:57;;;;;;;5.00;2.17;;;8.70;99.90;;;;;;5192083;28;20053;-74
2022/04/25 05:14:29;;;;;;;2.85;1.95;;;8.80;99.90;;;;;;5204061;28;20052;-75
2022/04/25 05:17:02;;;;;;;2.92;1.75;;;8.80;99.90;;;;;;5199042;28;22237;-76
2022/04/25 05:19:34;;;;;;;2.35;1.80;;;8.80;99.90;;;;;;5204360;28;20477;-76
2022/04/25 05:22:07;;;;;;;2.53;1.77;;;8.90;99.90;;;;;;5194525;28;20379;-74
2022/04/25 05:24:39;;;;;;;4.47;1.95;;;8.90;99.90;;;;;;5194687;28;20050;-75
2022/04/25 05:27:11;;;;;;;2.13;1.70;;;8.90;99.90;;;;;;5205049;28;20048;-75
2022/04/25 05:29:44;;;;;;;5.47;2.30;;;8.90;99.90;;;;;;5196753;28;20063;-75
2022/04/25 05:32:16;;;;;;;4.85;2.95;;;9.00;99.90;;;;;;5201207;28;20059;-74
2022/04/25 05:34:48;;;;;;;6.03;4.10;;;9.00;99.90;;;;;;5206634;28;20972;-75
2022/04/25 05:37:21;;;;;;;7.43;6.10;;;9.00;99.90;;;;;;5198819;28;20057;-76
2022/04/25 05:39:53;;;;;;;5.20;3.80;;;9.00;99.90;;;;;;5225024;28;20691;-75
2022/04/25 05:42:26;;;;;;;7.30;4.18;;;9.00;99.90;;;;;;5211225;28;20049;-74
2022/04/25 05:45:00;;;;;;;7.55;4.30;;;9.10;99.90;;;;;;5210936;28;20476;-74
2022/04/25 05:47:35;;;;;;;10.88;5.03;;;9.10;99.90;;;;;;5211217;28;20041;-74
2022/04/25 05:53:01;;;;;;;11.60;6.25;;;9.10;99.90;;;;;;5211994;28;20052;-74
2022/04/25 05:55:33;;;;;;;9.25;5.15;;;9.20;99.90;;;;;;5225948;28;20056;-75
2022/04/25 05:58:08;;;;;;;6.13;3.85;;;9.20;99.90;;;;;;5210748;28;20049;-75
2022/04/25 06:00:41;;;;;;;23.58;10.57;;;9.30;99.90;;;;;;5211440;28;20584;-75
2022/04/25 06:03:13;;;;;;;15.63;8.38;;;9.30;99.90;;;;;;5193946;28;20409;-75
2022/04/25 06:05:46;;;;;;;17.77;9.27;;;9.40;99.90;;;;;;5205539;28;20601;-75
2022/04/25 06:08:18;;;;;;;21.80;10.52;;;9.50;99.90;;;;;;5210971;28;20048;-75
2022/04/25 06:10:50;;;;;;;11.85;7.13;;;9.60;99.90;;;;;;5210940;28;20065;-74
2022/04/25 06:13:25;;;;;;;18.70;9.10;;;9.70;99.90;;;;;;5213810;28;20076;-74
2022/04/25 06:15:57;;;;;;;16.27;9.00;;;9.80;99.90;;;;;;5183848;28;20056;-75
2022/04/25 06:18:30;;;;;;;17.38;9.38;;;9.70;99.90;;;;;;5216526;28;20528;-75
2022/04/25 06:21:03;;;;;;;10.18;7.00;;;9.80;99.90;;;;;;5209958;28;20045;-75
2022/04/25 06:23:36;;;;;;;10.35;7.53;;;9.80;99.90;;;;;;5211784;28;20045;-75
2022/04/25 06:26:09;;;;;;;11.38;7.00;;;9.80;99.90;;;;;;5210724;28;20036;-75
2022/04/25 06:28:41;;;;;;;11.05;7.43;;;9.80;99.90;;;;;;5208442;28;20104;-73
2022/04/25 06:31:14;;;;;;;11.27;7.97;;;9.80;99.90;;;;;;5209425;28;20059;-75
2022/04/25 06:33:46;;;;;;;10.82;7.13;;;9.80;99.90;;;;;;5213434;28;20056;-75
2022/04/25 06:36:19;;;;;;;13.38;7.22;;;9.90;99.90;;;;;;5200169;28;20061;-75
2022/04/25 06:38:52;;;;;;;16.20;9.45;;;10.00;99.90;;;;;;5210172;28;20048;-75
2022/04/25 06:41:24;;;;;;;16.30;10.57;;;10.10;99.90;;;;;;5212128;28;20056;-74
2022/04/25 06:43:58;;;;;;;20.42;12.00;;;10.20;99.90;;;;;;5210255;28;20044;-75
2022/04/25 06:46:31;;;;;;;21.95;11.57;;;10.30;99.90;;;;;;5210163;28;20698;-74
2022/04/25 06:51:58;;;;;;;15.32;10.25;;;10.50;99.90;;;;;;5211696;28;20059;-75
2022/04/25 06:54:31;;;;;;;15.77;11.35;;;10.50;99.90;;;;;;5212527;28;20804;-74
2022/04/25 06:57:04;;;;;;;21.33;12.40;;;10.50;99.90;;;;;;5209720;28;20053;-77
2022/04/25 06:59:36;;;;;;;15.93;10.05;;;10.50;99.90;;;;;;5210168;28;20416;-76
2022/04/25 07:02:10;;;;;;;16.73;10.82;;;10.50;99.90;;;;;;5209925;28;20646;-75
2022/04/25 07:04:45;;;;;;;15.35;10.35;;;10.50;99.90;;;;;;5210888;28;20428;-75
2022/04/25 07:07:17;;;;;;;15.60;10.70;;;10.50;99.90;;;;;;5208196;28;20045;-74
2022/04/25 07:09:50;;;;;;;30.63;11.15;;;10.40;99.90;;;;;;5226675;28;20523;-75
2022/04/25 07:12:22;;;;;;;18.67;10.43;;;10.50;99.90;;;;;;5211171;28;20052;-74
2022/04/25 07:14:54;;;;;;;17.27;10.30;;;10.50;99.90;;;;;;5211299;28;20052;-75
2022/04/25 07:17:27;;;;;;;16.98;11.45;;;10.60;99.90;;;;;;5208880;28;20041;-75
2022/04/25 07:19:59;;;;;;;14.40;9.68;;;10.80;99.90;;;;;;5210821;28;20044;-75
2022/04/25 07:31:22;;;;;;;15.52;10.50;;;11.00;99.90;;;;;;5206927;28;20044;-75
2022/04/25 07:33:56;;;;;;;15.52;9.93;;;10.90;99.90;;;;;;5210598;28;20063;-75
2022/04/25 07:36:29;;;;;;;15.48;10.52;;;11.00;99.90;;;;;;5210019;28;20052;-75
2022/04/25 07:39:04;;;;;;;19.92;10.90;;;11.20;99.90;;;;;;5214006;28;20052;-76
2022/04/25 07:41:37;;;;;;;17.35;11.38;;;11.30;99.90;;;;;;5213150;28;20052;-75
2022/04/25 07:44:10;;;;;;;21.42;11.70;;;11.30;99.90;;;;;;5217558;28;20044;-76
2022/04/25 07:46:50;;;;;;;15.60;11.30;;;11.40;99.90;;;;;;5212283;28;20053;-76
2022/04/25 07:49:22;;;;;;;16.25;11.43;;;11.50;99.90;;;;;;5213451;28;20069;-75
2022/04/25 07:51:55;;;;;;;17.33;11.75;;;11.60;99.90;;;;;;5212997;28;20849;-75
2022/04/25 07:54:28;;;;;;;19.23;12.60;;;11.70;99.90;;;;;;5212917;28;20045;-76
2022/04/25 07:57:01;;;;;;;17.33;11.95;;;11.70;99.90;;;;;;5211797;28;20413;-76
2022/04/25 07:59:34;;;;;;;;;;;11.60;99.90;;;;;;5209426;28;97414;-73
2022/04/25 08:02:07;;;;;;;17.30;12.10;;;11.50;99.90;;;;;;5213648;28;19929;-74
2022/04/25 08:04:40;;;;;;;18.02;11.27;;;11.60;99.90;;;;;;5214402;28;20580;-74
2022/04/25 08:07:13;;;;;;;16.75;11.65;;;11.60;99.90;;;;;;5212507;28;20037;-74
2022/04/25 08:09:46;;;;;;;17.05;11.90;;;11.60;99.90;;;;;;5213475;28;20049;-74
2022/04/25 08:18:01;;;;;;;17.05;11.43;;;11.60;99.90;;;;;;5211364;28;20052;-74
2022/04/25 08:20:37;;;;;;;18.40;11.80;;;11.70;99.90;;;;;;5214650;28;20056;-74
2022/04/25 08:23:12;;;;;;;17.58;12.35;;;11.80;99.90;;;;;;5219070;28;20045;-75
2022/04/25 08:25:45;;;;;;;15.68;11.18;;;12.00;99.90;;;;;;5215775;28;20064;-75
2022/04/25 08:28:19;;;;;;;15.65;11.55;;;12.30;99.90;;;;;;5215007;28;20037;-75
2022/04/25 08:30:52;;;;;;;13.60;10.48;;;12.50;99.90;;;;;;5211383;28;20047;-76
2022/04/25 08:33:25;;;;;;;14.23;10.95;;;12.40;98.40;;;;;;5214958;28;20603;-74
2022/04/25 08:35:58;;;;;;;11.57;9.02;;;12.40;98.20;;;;;;5213810;28;20045;-74
2022/04/25 08:38:30;;;;;;;15.45;9.68;;;12.40;96.70;;;;;;5214052;28;20053;-74
2022/04/25 08:41:06;;;;;;;12.30;9.00;;;12.40;97.00;;;;;;5214834;28;20053;-75
2022/04/25 08:43:39;;;;;;;12.65;9.90;;;12.30;96.20;;;;;;5213212;28;20044;-75
2022/04/25 08:46:12;;;;;;;12.07;9.38;;;12.20;96.70;;;;;;5212908;28;20051;-74
2022/04/25 08:48:45;;;;;;;14.15;9.95;;;12.20;96.60;;;;;;5213007;28;20052;-75
2022/04/25 08:51:26;;;;;;;17.83;12.30;;;12.20;97.90;;;;;;5213738;28;20055;-75
2022/04/25 08:53:59;;;;;;;20.92;12.68;;;12.00;95.30;;;;;;5196415;28;20056;-75
2022/04/25 08:56:33;;;;;;;18.30;12.77;;;11.90;95.50;;;;;;5215110;28;20056;-75
2022/04/25 08:59:07;;;;;;;17.10;12.50;;;11.80;95.20;;;;;;5214163;28;20045;-75
2022/04/25 09:01:40;;;;;;;20.13;13.13;;;11.90;96.10;;;;;;5213173;28;20052;-75
2022/04/25 09:04:13;;;;;;;17.38;12.32;;;12.00;97.20;;;;;;5213821;28;20045;-75
2022/04/25 09:06:48;;;;;;;15.70;11.83;;;12.10;95.90;;;;;;5212752;28;20068;-75
2022/04/25 09:09:21;;;;;;;13.82;10.90;;;12.20;94.40;;;;;;5214878;28;20405;-75
2022/04/25 09:12:09;;;;;;;16.23;10.55;;;12.50;93.40;;;;;;5211919;28;20071;-75
2022/04/25 09:14:45;;;;;;;15.25;10.05;;;12.50;91.90;;;;;;5214586;28;20045;-74
2022/04/25 09:17:38;;;;;;;14.13;10.38;;;12.50;90.60;;;;;;5213201;28;20056;-76
2022/04/25 09:20:11;;;;;;;13.68;10.25;;;12.50;89.90;;;;;;5211120;28;20056;-76
2022/04/25 09:22:43;;;;;;;11.93;9.35;;;12.60;90.10;;;;;;5212445;28;20045;-76
2022/04/25 09:25:18;;;;;;;13.70;9.95;;;12.70;90.10;;;;;;5213312;28;20056;-76
2022/04/25 09:28:14;;;;;;;13.20;9.82;;;13.00;89.00;;;;;;5213488;28;20041;-75
2022/04/25 09:31:00;;;;;;;10.50;7.85;;;13.30;88.80;;;;;;5210885;28;20504;-74
2022/04/25 09:33:34;;;;;;;13.32;8.55;;;13.50;83.20;;;;;;5211829;28;20041;-74
2022/04/25 09:36:06;;;;;;;13.23;8.63;;;13.50;84.00;;;;;;5210774;28;20046;-74
2022/04/25 09:38:41;;;;;;;10.75;8.13;;;13.60;83.60;;;;;;5213613;28;20056;-76
2022/04/25 09:41:15;;;;;;;10.68;7.95;;;13.50;82.80;;;;;;5212318;28;20051;-75
2022/04/25 09:43:58;;;;;;;12.05;7.40;;;13.50;82.50;;;;;;5211366;28;20532;-73
2022/04/25 09:46:46;;;;;;;11.25;7.95;;;13.50;79.60;;;;;;5211210;28;20607;-75
2022/04/25 09:49:20;;;;;;;11.18;7.85;;;13.40;76.70;;;;;;5210161;28;20060;-75
2022/04/25 09:52:02;;;;;;;;;;;13.40;79.90;;;;;;5213046;28;20045;-75
2022/04/25 09:54:35;;;;;;;10.57;7.90;;;13.60;78.30;;;;;;5212186;28;20019;-75
2022/04/25 09:57:26;;;;;;;9.83;6.90;;;13.90;80.20;;;;;;5212342;28;21160;-75
2022/04/25 09:59:59;;;;;;;9.63;7.78;;;14.10;80.10;;;;;;5209598;28;20068;-75
2022/04/25 10:02:44;;;;;;;12.30;8.57;;;14.20;77.40;;;;;;5210678;28;20842;-75
2022/04/25 10:05:17;;;;;;;12.25;9.07;;;14.00;75.80;;;;;;5211531;28;20059;-74
2022/04/25 10:07:55;;;;;;;12.07;8.57;;;13.90;77.30;;;;;;5228065;28;20052;-75
2022/04/25 10:10:27;;;;;;;13.13;9.57;;;13.90;77.40;;;;;;5214872;28;20049;-75
2022/04/25 10:13:01;;;;;;;15.13;10.25;;;14.00;78.40;;;;;;5214680;28;20060;-74
2022/04/25 10:15:35;;;;;;;14.40;10.18;;;14.00;78.00;;;;;;5226440;28;20551;-75
2022/04/25 10:18:09;;;;;;;13.90;10.65;;;14.10;79.10;;;;;;5212569;28;20063;-75
2022/04/25 10:20:44;;;;;;;16.42;10.77;;;14.10;79.40;;;;;;5211962;28;20045;-74
2022/04/25 10:23:17;;;;;;;16.25;11.52;;;14.20;78.70;;;;;;5211634;28;20048;-75
2022/04/25 10:25:55;;;;;;;13.15;10.23;;;14.10;79.00;;;;;;5211453;28;20055;-74
2022/04/25 10:28:38;;;;;;;12.65;9.90;;;14.30;80.00;;;;;;5212187;28;20052;-74
2022/04/25 10:31:18;;;;;;;13.50;9.50;;;14.30;77.50;;;;;;5211471;28;20526;-75
2022/04/25 10:33:53;;;;;;;13.05;9.00;;;14.30;76.10;;;;;;5211818;28;20061;-77
2022/04/25 10:36:38;;;;;;;12.13;8.77;;;14.40;75.80;;;;;;5212358;28;20044;-75
2022/04/25 10:39:21;;;;;;;14.63;11.07;;;14.50;76.00;;;;;;5225834;28;20041;-74
2022/04/25 10:44:48;;;;;;;14.63;10.95;;;14.60;76.40;;;;;;5210231;28;20045;-75
2022/04/25 10:47:22;;;;;;;13.23;9.50;;;14.80;75.80;;;;;;5211020;28;20045;-74
2022/04/25 10:49:55;;;;;;;14.10;11.07;;;14.80;74.00;;;;;;5210717;28;20045;-75
2022/04/25 10:52:34;;;;;;;;;;;15.00;73.50;;;;;;5210762;28;20539;-75
2022/04/25 10:55:13;;;;;;;14.95;9.68;;;15.00;72.90;;;;;;5210491;28;19925;-75
2022/04/25 10:58:05;;;;;;;13.38;9.65;;;15.10;73.70;;;;;;5209407;28;20055;-76
2022/04/25 11:00:40;;;;;;;12.23;9.23;;;15.00;72.30;;;;;;5210198;28;20057;-76
2022/04/25 11:03:18;;;;;;;12.38;9.02;;;14.80;73.70;;;;;;5211011;28;20115;-75
2022/04/25 11:05:54;;;;;;;13.48;10.18;;;15.00;74.30;;;;;;5210764;28;20053;-75
2022/04/25 11:08:32;;;;;;;17.25;9.30;;;15.40;71.80;;;;;;5208368;28;20052;-75
2022/04/25 11:11:16;;;;;;;12.82;9.82;;;15.80;73.00;;;;;;5194640;28;20045;-74
2022/04/25 11:13:51;;;;;;;12.13;8.80;;;16.50;71.90;;;;;;5210449;28;20849;-75
2022/04/25 11:16:26;;;;;;;14.93;11.00;;;17.10;69.30;;;;;;5209348;28;20554;-75
2022/04/25 11:19:09;;;;;;;13.82;9.15;;;17.50;68.40;;;;;;5191585;28;20591;-74
2022/04/25 11:21:55;;;;;;;13.52;9.95;;;17.80;66.60;;;;;;5195659;28;20049;-74
2022/04/25 11:24:37;;;;;;;13.02;10.32;;;17.70;64.60;;;;;;5192436;28;20451;-74
2022/04/25 11:27:12;;;;;;;13.25;10.63;;;17.80;67.20;;;;;;5208692;28;20040;-75
2022/04/25 11:29:45;;;;;;;12.23;9.88;;;17.90;66.70;;;;;;5200399;28;20056;-74
2022/04/25 11:32:35;;;;;;;11.73;9.32;;;18.40;67.00;;;;;;5206814;28;20060;-74
2022/04/25 11:35:08;;;;;;;11.73;9.20;;;18.90;64.90;;;;;;5203926;28;20501;-75
2022/04/25 11:37:40;;;;;;;12.20;10.05;;;19.10;61.40;;;;;;5202862;28;20049;-76
2022/04/25 11:40:14;;;;;;;9.63;8.00;;;19.00;61.30;;;;;;5198776;28;20297;-74
2022/04/25 11:42:47;;;;;;;9.75;7.97;;;18.80;61.30;;;;;;5199275;28;20605;-75
2022/04/25 11:45:20;;;;;;;10.18;8.57;;;18.60;62.20;;;;;;5204168;28;20042;-75
2022/04/25 11:47:52;;;;;;;9.60;8.13;;;18.60;61.70;;;;;;5205446;28;20056;-75
2022/04/25 11:50:26;;;;;;;10.40;8.30;;;18.50;61.40;;;;;;5206388;28;20121;-75
2022/04/25 11:52:59;;;;;;;13.27;9.05;;;18.10;61.10;;;;;;5203192;28;20045;-74
2022/04/25 11:55:35;;;;;;;10.18;7.85;;;17.60;62.90;;;;;;5203931;28;20048;-76
2022/04/25 11:58:08;;;;;;;12.40;8.98;;;17.20;62.40;;;;;;5206826;28;21265;-76
2022/04/25 12:00:43;;;;;;;8.73;7.82;;;16.90;62.60;;;;;;5200510;28;20064;-75
2022/04/25 12:03:21;;;;;;;10.90;8.05;;;16.60;62.70;;;;;;5203513;28;20040;-73
2022/04/25 12:06:09;;;;;;;10.18;7.63;;;16.50;64.60;;;;;;5187261;28;20048;-75
2022/04/25 12:17:21;;;;;;;14.10;10.68;;;18.90;63.50;;;;;;5186411;28;20052;-75
2022/04/25 12:19:57;;;;;;;13.15;10.73;;;19.60;60.00;;;;;;5199701;28;20547;-74
2022/04/25 12:22:30;;;;;;;12.32;10.00;;;19.20;58.90;;;;;;5190792;28;20372;-74
2022/04/25 12:25:17;;;;;;;17.30;11.20;;;18.70;59.70;;;;;;5206650;28;20052;-74
2022/04/25 12:28:04;;;;;;;13.27;9.55;;;18.50;58.40;;;;;;5203515;28;20106;-75
2022/04/25 12:31:06;;;;;;;11.98;9.70;;;18.40;59.30;;;;;;5195937;28;20049;-75
2022/04/25 12:33:41;;;;;;;13.43;9.68;;;18.10;58.10;;;;;;5201465;28;20045;-74
2022/04/25 12:36:19;;;;;;;13.63;8.95;;;18.10;59.40;;;;;;5206887;28;20044;-75
2022/04/25 12:38:57;;;;;;;10.48;8.60;;;18.10;59.20;;;;;;5210737;28;20040;-74
2022/04/25 12:41:30;;;;;;;11.52;9.45;;;19.00;57.10;;;;;;5204250;28;20056;-74
2022/04/25 12:44:15;;;;;;;12.52;8.90;;;19.40;57.00;;;;;;5194081;28;20045;-75
2022/04/25 12:46:52;;;;;;;12.52;8.27;;;19.60;56.10;;;;;;5202682;28;20056;-74
2022/04/25 12:49:37;;;;;;;14.70;9.35;;;19.30;56.30;;;;;;5207892;28;20052;-75
2022/04/25 12:52:11;;;;;;;13.18;10.27;;;19.10;55.60;;;;;;5201368;28;20163;-76
2022/04/25 12:54:51;;;;;;;12.63;10.52;;;18.70;57.90;;;;;;5199464;28;20055;-75
2022/04/25 12:57:24;;;;;;;15.18;11.30;;;18.70;58.50;;;;;;5204895;28;20052;-75
2022/04/25 12:59:59;;;;;;;13.93;10.82;;;18.50;58.10;;;;;;5201997;28;20045;-75
2022/04/25 13:02:35;;;;;;;14.77;11.18;;;18.80;60.20;;;;;;5171798;28;20056;-76
2022/04/25 13:05:12;;;;;;;13.90;10.70;;;19.70;58.00;;;;;;5191785;28;20060;-76
2022/04/25 13:07:47;;;;;;;14.07;11.63;;;20.30;56.50;;;;;;5182134;28;20037;-76
2022/04/25 13:10:20;;;;;;;12.60;9.88;;;20.30;54.60;;;;;;5197607;28;20045;-75
2022/04/25 13:12:54;;;;;;;12.00;9.55;;;20.80;55.30;;;;;;5196075;28;20040;-74
2022/04/25 13:15:31;;;;;;;;;;;21.30;54.10;;;;;;5195719;28;20064;-74
2022/04/25 13:18:03;;;;;;;14.27;10.45;;;21.60;52.20;;;;;;5204143;28;19921;-75
2022/04/25 13:20:36;;;;;;;12.23;9.80;;;21.10;54.20;;;;;;5202795;28;20064;-75
2022/04/25 13:23:08;;;;;;;18.08;11.55;;;20.40;54.10;;;;;;5204290;28;20049;-75
2022/04/25 13:25:41;;;;;;;15.10;11.27;;;19.90;54.40;;;;;;5199206;28;20045;-75
2022/04/25 13:28:13;;;;;;;13.35;10.40;;;19.60;55.40;;;;;;5188418;28;20045;-75
2022/04/25 13:30:45;;;;;;;15.60;11.70;;;19.50;55.90;;;;;;5200979;28;20045;-75
2022/04/25 13:33:18;;;;;;;12.25;10.35;;;19.40;55.00;;;;;;5208862;28;20061;-75
2022/04/25 13:35:50;;;;;;;14.90;10.15;;;20.00;54.50;;;;;;5198180;28;20065;-74
2022/04/25 13:38:22;;;;;;;14.18;11.82;;;20.10;54.40;;;;;;5190272;28;20053;-74
2022/04/25 13:40:55;;;;;;;13.85;11.00;;;19.70;53.40;;;;;;5186474;28;20048;-75
2022/04/25 13:43:28;;;;;;;12.98;9.85;;;19.70;55.30;;;;;;5200083;28;20048;-75
2022/04/25 13:46:00;;;;;;;12.95;10.70;;;19.80;55.20;;;;;;5196887;28;20052;-74
2022/04/25 13:48:33;;;;;;;12.43;10.18;;;20.20;55.60;;;;;;5192954;28;20041;-75
2022/04/25 13:51:05;;;;;;;10.23;9.13;;;20.90;54.00;;;;;;5198963;28;20489;-75
2022/04/25 13:53:38;;;;;;;12.23;10.23;;;21.30;53.20;;;;;;5194831;28;20049;-75
2022/04/25 13:56:11;;;;;;;11.30;8.77;;;21.60;51.80;;;;;;5187274;28;20162;-74
2022/04/25 13:58:43;;;;;;;12.27;9.73;;;21.70;50.90;;;;;;5189438;28;20044;-74